createdAt,value
2023-04-21T00:01:08.820Z,3.83
2023-04-21T00:03:39.695Z,4.05
2023-04-21T00:06:07.545Z,4.95
2023-04-21T00:08:40.699Z,4.38
2023-04-21T00:11:09.118Z,4.22
2023-04-21T00:13:40.222Z,4.50
2023-04-21T00:16:08.568Z,5.00
2023-04-21T00:18:36.370Z,5.10
2023-04-21T00:21:04.748Z,4.32
2023-04-21T00:23:32.458Z,4.18
2023-04-21T00:26:03.158Z,5.45
2023-04-21T00:28:31.388Z,4.57
2023-04-21T00:30:59.884Z,5.47
2023-04-21T00:33:27.656Z,4.97
2023-04-21T00:35:59.432Z,4.97
2023-04-21T00:38:31.267Z,4.10
2023-04-21T00:40:59.100Z,4.55
2023-04-21T00:43:26.816Z,5.00
2023-04-21T00:45:55.665Z,5.47
2023-04-21T00:48:23.311Z,5.18
2023-04-21T00:50:51.022Z,5.43
2023-04-21T00:53:18.771Z,5.00
2023-04-21T00:55:46.750Z,5.60
2023-04-21T00:58:14.602Z,4.47
2023-04-21T01:00:44.636Z,6.18
2023-04-21T01:03:12.542Z,5.43
2023-04-21T01:05:42.524Z,5.15
2023-04-21T01:08:13.224Z,4.75
2023-04-21T01:10:40.642Z,6.03
2023-04-21T01:13:07.976Z,6.72
2023-04-21T01:15:35.498Z,5.78
2023-04-21T01:18:02.981Z,6.38
2023-04-21T01:20:30.335Z,5.82
2023-04-21T01:22:58.374Z,5.40
2023-04-21T01:25:28.363Z,6.03
2023-04-21T01:27:56.656Z,5.95
2023-04-21T01:30:23.929Z,6.45
2023-04-21T01:32:51.831Z,7.57
2023-04-21T01:35:19.346Z,7.07
2023-04-21T01:37:46.707Z,7.57
2023-04-21T01:40:14.035Z,7.38
2023-04-21T01:42:43.133Z,7.28
2023-04-21T01:45:11.098Z,7.10
2023-04-21T01:47:38.739Z,6.55
2023-04-21T01:50:07.889Z,8.40
2023-04-21T01:52:35.404Z,8.27
2023-04-21T01:55:03.070Z,8.30
2023-04-21T01:57:30.437Z,8.75
2023-04-21T01:59:57.927Z,8.68
2023-04-21T02:02:25.410Z,8.85
2023-04-21T02:04:52.808Z,8.48
2023-04-21T02:07:21.504Z,10.60
2023-04-21T02:09:48.788Z,9.10
2023-04-21T02:12:16.210Z,10.00
2023-04-21T02:14:43.493Z,9.80
2023-04-21T02:17:11.313Z,9.73
2023-04-21T02:19:38.706Z,9.77
2023-04-21T02:22:08.152Z,10.10
2023-04-21T02:24:35.992Z,8.52
2023-04-21T02:27:03.637Z,10.13
2023-04-21T02:29:31.287Z,10.15
2023-04-21T02:32:07.743Z,11.13
2023-04-21T02:34:42.231Z,9.45
2023-04-21T02:37:09.582Z,10.13
2023-04-21T02:39:36.932Z,9.70
2023-04-21T02:42:06.124Z,9.27
2023-04-21T02:44:33.359Z,9.32
2023-04-21T02:47:00.784Z,9.52
2023-04-21T02:49:28.030Z,8.18
2023-04-21T02:51:58.706Z,9.27
2023-04-21T02:54:26.047Z,9.23
2023-04-21T02:56:53.381Z,9.27
2023-04-21T02:59:20.926Z,8.77
2023-04-21T03:01:49.144Z,8.93
2023-04-21T03:04:17.292Z,9.00
2023-04-21T03:06:44.662Z,8.40
2023-04-21T03:09:12.944Z,8.25
2023-04-21T03:11:40.237Z,8.07
2023-04-21T03:14:07.519Z,8.88
2023-04-21T03:16:34.843Z,9.13
2023-04-21T03:19:02.121Z,9.40
2023-04-21T03:21:29.675Z,8.48
2023-04-21T03:23:56.998Z,9.00
2023-04-21T03:26:24.448Z,8.27
2023-04-21T03:28:51.709Z,8.35
2023-04-21T03:31:19.100Z,7.50
2023-04-21T03:33:46.639Z,9.18
2023-04-21T03:36:14.141Z,9.00
2023-04-21T03:38:41.508Z,9.13
2023-04-21T03:41:08.735Z,8.63
2023-04-21T03:43:36.245Z,8.73
2023-04-21T03:46:03.654Z,7.95
2023-04-21T03:48:31.917Z,9.07
2023-04-21T03:50:59.219Z,9.02
2023-04-21T03:53:26.549Z,8.65
2023-04-21T03:55:54.146Z,8.38
2023-04-21T03:58:21.448Z,8.15
2023-04-21T04:00:48.678Z,9.90
2023-04-21T04:03:16.092Z,8.00
2023-04-21T04:05:43.584Z,8.02
2023-04-21T04:08:11.034Z,9.75
2023-04-21T04:10:38.442Z,7.97
2023-04-21T04:13:05.866Z,10.55
2023-04-21T04:15:33.254Z,8.63
2023-04-21T04:18:01.560Z,9.00
2023-04-21T04:20:28.861Z,9.55
2023-04-21T04:22:56.172Z,8.75
2023-04-21T04:25:23.423Z,10.88
2023-04-21T04:27:50.704Z,10.15
2023-04-21T04:30:18.088Z,8.80
2023-04-21T04:32:45.592Z,10.48
2023-04-21T04:35:13.533Z,10.80
2023-04-21T04:37:41.181Z,9.93
2023-04-21T04:40:15.626Z,10.43
2023-04-21T04:42:43.565Z,9.82
2023-04-21T04:45:11.363Z,9.88
2023-04-21T04:47:39.152Z,8.88
2023-04-21T04:50:06.868Z,8.93
2023-04-21T04:52:34.191Z,10.48
2023-04-21T04:55:01.407Z,9.80
2023-04-21T04:57:28.697Z,10.00
2023-04-21T04:59:56.408Z,10.13
2023-04-21T05:02:24.317Z,10.98
2023-04-21T05:04:52.168Z,11.90
2023-04-21T05:07:19.673Z,10.48
2023-04-21T05:09:47.038Z,11.95
2023-04-21T05:12:14.307Z,11.02
2023-04-21T05:14:41.602Z,10.77
2023-04-21T05:17:08.964Z,11.65
2023-04-21T05:19:37.504Z,10.77
2023-04-21T05:22:06.476Z,11.15
2023-04-21T05:24:34.230Z,11.43
2023-04-21T05:27:02.960Z,11.60
2023-04-21T05:29:30.953Z,12.02
2023-04-21T05:31:58.284Z,11.95
2023-04-21T05:34:25.596Z,11.02
2023-04-21T05:36:52.830Z,10.80
2023-04-21T05:39:20.278Z,12.60
2023-04-21T05:41:47.527Z,12.63
2023-04-21T05:44:18.086Z,11.70
2023-04-21T05:46:45.670Z,11.55
2023-04-21T05:49:12.881Z,12.30
2023-04-21T05:51:40.166Z,11.10
2023-04-21T05:54:07.354Z,11.43
2023-04-21T05:56:34.646Z,11.65
2023-04-21T05:59:01.980Z,11.90
2023-04-21T06:01:29.329Z,12.95
2023-04-21T06:03:56.924Z,12.40
2023-04-21T06:06:24.368Z,12.68
2023-04-21T06:08:51.619Z,10.93
2023-04-21T06:11:18.954Z,12.13
2023-04-21T06:13:46.354Z,11.32
2023-04-21T06:16:13.580Z,13.00
2023-04-21T06:18:40.880Z,12.73
2023-04-21T06:21:08.180Z,13.27
2023-04-21T06:23:35.443Z,12.65
2023-04-21T06:26:05.088Z,12.20
2023-04-21T06:28:33.110Z,11.45
2023-04-21T06:31:05.389Z,12.10
2023-04-21T06:33:35.290Z,11.38
2023-04-21T06:36:02.577Z,11.75
2023-04-21T06:38:29.892Z,11.00
2023-04-21T06:40:57.300Z,11.48
2023-04-21T06:43:24.605Z,10.80
2023-04-21T06:45:51.893Z,11.77
2023-04-21T06:48:19.217Z,12.23
2023-04-21T06:50:46.546Z,11.70
2023-04-21T06:53:13.925Z,11.75
2023-04-21T06:55:41.173Z,13.77
2023-04-21T06:58:08.566Z,11.35
2023-04-21T07:00:35.787Z,11.43
2023-04-21T07:03:03.336Z,11.80
2023-04-21T07:05:30.710Z,11.27
2023-04-21T07:07:59.841Z,11.40
2023-04-21T07:10:27.867Z,12.43
2023-04-21T07:12:55.766Z,11.65
2023-04-21T07:15:23.500Z,11.45
2023-04-21T07:17:51.377Z,9.60
2023-04-21T07:20:19.061Z,10.43
2023-04-21T07:22:46.296Z,9.77
2023-04-21T07:25:13.614Z,10.50
2023-04-21T07:27:40.973Z,10.98
2023-04-21T07:30:08.650Z,10.80
2023-04-21T07:32:38.379Z,10.45
2023-04-21T07:35:06.579Z,10.70
2023-04-21T07:37:33.849Z,11.07
2023-04-21T07:40:01.458Z,8.77
2023-04-21T07:42:28.890Z,9.90
2023-04-21T07:44:57.569Z,9.35
2023-04-21T07:47:25.001Z,10.15
2023-04-21T07:49:52.403Z,9.57
2023-04-21T07:52:19.716Z,9.52
2023-04-21T07:54:47.102Z,7.85
2023-04-21T07:57:14.790Z,9.57
2023-04-21T07:59:42.470Z,9.23
2023-04-21T08:02:10.303Z,8.07
2023-04-21T08:04:37.786Z,8.45
2023-04-21T08:07:05.584Z,8.55
2023-04-21T08:09:33.139Z,9.30
2023-04-21T08:12:00.562Z,9.55
2023-04-21T08:14:28.344Z,8.80
2023-04-21T08:16:57.242Z,7.20
2023-04-21T08:19:24.805Z,7.30
2023-04-21T08:21:52.219Z,5.97
2023-04-21T08:24:19.785Z,7.65
2023-04-21T08:26:47.436Z,7.70
2023-04-21T08:29:15.141Z,7.35
2023-04-21T08:31:42.598Z,6.82
2023-04-21T08:34:09.930Z,7.20
2023-04-21T08:36:37.304Z,6.82
2023-04-21T08:39:04.679Z,6.55
2023-04-21T08:41:32.073Z,6.65
2023-04-21T08:43:59.350Z,7.45
2023-04-21T08:46:28.572Z,7.57
2023-04-21T08:48:56.123Z,6.28
2023-04-21T08:51:24.573Z,8.13
2023-04-21T08:53:52.223Z,6.55
2023-04-21T08:56:19.543Z,5.50
2023-04-21T08:58:46.851Z,6.90
2023-04-21T09:01:14.112Z,6.90
2023-04-21T09:03:41.704Z,7.03
2023-04-21T09:06:10.228Z,7.03
2023-04-21T09:08:38.443Z,6.15
2023-04-21T09:11:05.970Z,6.63
2023-04-21T09:13:36.813Z,6.50
2023-04-21T09:16:16.294Z,7.70
2023-04-21T09:18:44.308Z,6.03
2023-04-21T09:21:14.942Z,6.95
2023-04-21T09:23:42.989Z,6.88
2023-04-21T09:26:10.828Z,6.05
2023-04-21T09:28:41.189Z,6.30
2023-04-21T09:31:14.258Z,6.53
2023-04-21T09:33:56.510Z,6.57
2023-04-21T09:36:28.295Z,7.20
2023-04-21T09:39:15.379Z,6.97
2023-04-21T09:41:44.607Z,7.47
2023-04-21T09:44:11.843Z,6.18
2023-04-21T09:46:39.416Z,6.85
2023-04-21T09:49:06.915Z,6.80
2023-04-21T09:54:21.976Z,6.97
2023-04-21T09:56:59.149Z,5.80
2023-04-21T09:59:28.141Z,5.63
2023-04-21T10:01:56.554Z,6.20
2023-04-21T10:04:26.486Z,7.15
2023-04-21T10:06:54.182Z,6.38
2023-04-21T10:09:23.899Z,6.32
2023-04-21T10:11:52.069Z,6.10
2023-04-21T10:14:19.520Z,5.22
2023-04-21T10:16:56.869Z,5.57
2023-04-21T10:19:27.923Z,5.55
2023-04-21T10:21:58.200Z,4.93
2023-04-21T10:24:29.075Z,5.97
2023-04-21T10:26:59.623Z,6.55
2023-04-21T10:29:40.090Z,5.32
2023-04-21T10:32:32.237Z,4.90
2023-04-21T10:37:26.914Z,4.22
2023-04-21T10:39:55.268Z,4.47
2023-04-21T10:42:24.924Z,5.22
2023-04-21T10:44:56.441Z,5.05
2023-04-21T10:47:27.840Z,5.35
2023-04-21T10:49:57.427Z,4.97
2023-04-21T10:52:32.552Z,5.18
2023-04-21T10:54:59.901Z,4.18
2023-04-21T10:57:27.187Z,4.50
2023-04-21T10:59:55.684Z,4.00
2023-04-21T11:02:23.155Z,4.40
2023-04-21T11:04:54.376Z,7.03
2023-04-21T11:07:23.154Z,5.50
2023-04-21T11:09:57.867Z,5.70
2023-04-21T11:12:27.917Z,5.90
2023-04-21T11:14:55.286Z,6.22
2023-04-21T11:17:24.102Z,5.60
2023-04-21T11:19:54.291Z,6.47
2023-04-21T11:22:23.524Z,6.47
2023-04-21T11:24:51.979Z,7.13
2023-04-21T11:27:19.285Z,6.95
2023-04-21T11:29:47.012Z,6.53
2023-04-21T11:32:14.629Z,7.07
2023-04-21T11:34:42.426Z,6.82
2023-04-21T11:37:17.507Z,7.20
2023-04-21T11:39:45.348Z,8.88
2023-04-21T11:42:12.775Z,7.68
2023-04-21T11:44:43.585Z,6.75
2023-04-21T11:47:14.495Z,6.88
2023-04-21T11:50:02.239Z,6.18
2023-04-21T11:52:32.876Z,6.45
2023-04-21T11:55:15.310Z,6.75
2023-04-21T11:57:42.724Z,6.13
2023-04-21T12:00:14.473Z,6.72
2023-04-21T12:02:41.863Z,6.45
2023-04-21T12:05:09.630Z,6.20
2023-04-21T12:07:38.517Z,6.53
2023-04-21T12:10:13.162Z,6.28
2023-04-21T12:12:41.659Z,6.38
2023-04-21T12:15:10.426Z,6.00
2023-04-21T12:17:49.039Z,5.47
2023-04-21T12:20:18.778Z,6.45
2023-04-21T12:22:46.618Z,6.93
2023-04-21T12:25:14.405Z,6.88
2023-04-21T12:27:49.011Z,6.97
2023-04-21T12:30:16.439Z,5.50
2023-04-21T12:32:43.940Z,5.43
2023-04-21T12:35:11.472Z,4.70
2023-04-21T12:37:38.858Z,4.13
2023-04-21T12:40:07.844Z,5.10
2023-04-21T12:42:37.426Z,4.85
2023-04-21T12:45:05.552Z,3.97
2023-04-21T12:47:34.831Z,4.53
2023-04-21T12:50:02.183Z,3.83
2023-04-21T12:52:29.500Z,4.25
2023-04-21T12:54:56.813Z,3.83
2023-04-21T12:57:24.193Z,3.78
2023-04-21T12:59:51.452Z,3.85
2023-04-21T13:02:19.073Z,3.53
2023-04-21T13:04:46.550Z,3.65
2023-04-21T13:07:15.935Z,3.92
2023-04-21T13:09:43.306Z,3.40
2023-04-21T13:12:10.507Z,3.90
2023-04-21T13:14:37.854Z,4.00
2023-04-21T13:17:05.594Z,3.78
2023-04-21T13:19:33.331Z,3.90
2023-04-21T13:22:00.897Z,4.10
2023-04-21T13:24:28.242Z,3.20
2023-04-21T13:26:56.145Z,2.95
2023-04-21T13:29:23.475Z,3.53
2023-04-21T13:31:50.948Z,3.03
2023-04-21T13:34:18.380Z,3.47
2023-04-21T13:36:45.857Z,3.20
2023-04-21T13:39:13.343Z,3.00
2023-04-21T13:41:40.605Z,2.72
2023-04-21T13:44:07.926Z,3.00
2023-04-21T13:46:35.203Z,2.70
2023-04-21T13:49:02.736Z,3.30
2023-04-21T13:51:30.467Z,3.65
2023-04-21T13:53:57.794Z,3.03
2023-04-21T13:56:25.496Z,2.83
2023-04-21T13:58:52.837Z,2.70
2023-04-21T14:01:21.705Z,2.85
2023-04-21T14:03:49.938Z,3.10
2023-04-21T14:06:17.463Z,2.70
2023-04-21T14:08:44.903Z,2.75
2023-04-21T14:11:12.213Z,2.85
2023-04-21T14:13:47.795Z,3.13
2023-04-21T14:16:19.743Z,3.35
2023-04-21T14:18:47.477Z,2.78
2023-04-21T14:21:14.755Z,3.30
2023-04-21T14:23:42.053Z,2.75
2023-04-21T14:26:09.563Z,2.97
2023-04-21T14:28:37.251Z,3.60
2023-04-21T14:31:04.587Z,2.33
2023-04-21T14:33:33.217Z,3.30
2023-04-21T14:36:01.101Z,3.88
2023-04-21T14:38:30.731Z,3.17
2023-04-21T14:40:58.372Z,3.20
2023-04-21T14:43:25.713Z,3.58
2023-04-21T14:45:53.321Z,3.28
2023-04-21T14:48:21.660Z,3.42
2023-04-21T14:50:49.131Z,4.38
2023-04-21T14:53:16.539Z,4.88
2023-04-21T14:55:43.768Z,4.22
2023-04-21T14:58:11.056Z,3.13
2023-04-21T15:00:38.903Z,3.28
2023-04-21T15:03:06.276Z,3.60
2023-04-21T15:05:34.883Z,3.45
2023-04-21T15:08:02.378Z,3.28
2023-04-21T15:10:30.868Z,4.57
2023-04-21T15:12:58.192Z,3.33
2023-04-21T15:15:25.536Z,3.97
2023-04-21T15:17:53.005Z,3.60
2023-04-21T15:20:26.782Z,3.72
2023-04-21T15:23:04.063Z,3.30
2023-04-21T15:25:31.404Z,4.15
2023-04-21T15:27:58.662Z,3.45
2023-04-21T15:30:25.934Z,3.30
2023-04-21T15:32:53.689Z,5.00
2023-04-21T15:35:20.936Z,3.83
2023-04-21T15:37:48.314Z,3.92
2023-04-21T15:40:15.851Z,4.47
2023-04-21T15:42:43.256Z,4.13
2023-04-21T15:45:11.090Z,3.47
2023-04-21T15:47:38.511Z,4.28
2023-04-21T15:50:06.082Z,3.47
2023-04-21T15:52:36.970Z,4.45
2023-04-21T15:55:04.505Z,3.88
2023-04-21T15:57:33.727Z,4.38
2023-04-21T16:00:01.438Z,4.32
2023-04-21T16:02:31.951Z,3.72
2023-04-21T16:04:59.852Z,4.20
2023-04-21T16:07:27.493Z,4.00
2023-04-21T16:09:54.925Z,4.40
2023-04-21T16:12:22.274Z,3.85
2023-04-21T16:14:57.524Z,4.55
2023-04-21T16:17:29.033Z,4.55
2023-04-21T16:19:56.350Z,5.05
2023-04-21T16:22:23.705Z,4.65
2023-04-21T16:24:52.951Z,4.68
2023-04-21T16:27:20.794Z,4.13
2023-04-21T16:29:49.030Z,4.30
2023-04-21T16:32:16.408Z,4.20
2023-04-21T16:34:43.730Z,4.63
2023-04-21T16:37:11.263Z,4.47
2023-04-21T16:39:38.838Z,4.25
2023-04-21T16:42:06.189Z,3.97
2023-04-21T16:44:33.463Z,4.45
2023-04-21T16:47:01.130Z,4.55
2023-04-21T16:49:30.184Z,4.68
2023-04-21T16:51:57.592Z,4.45
2023-04-21T16:54:26.135Z,4.75
2023-04-21T16:56:53.421Z,8.05
2023-04-21T16:59:21.315Z,4.38
2023-04-21T17:01:48.594Z,4.25
2023-04-21T17:04:16.347Z,3.35
2023-04-21T17:06:43.675Z,2.60
2023-04-21T17:09:11.055Z,2.47
2023-04-21T17:11:40.188Z,2.10
2023-04-21T17:14:07.608Z,2.20
2023-04-21T17:16:35.267Z,1.45
2023-04-21T17:19:02.591Z,1.67
2023-04-21T17:21:30.232Z,1.55
2023-04-21T17:23:57.547Z,2.25
2023-04-21T17:26:25.290Z,1.20
2023-04-21T17:28:52.743Z,1.45
2023-04-21T17:31:20.086Z,1.30
2023-04-21T17:33:53.976Z,1.48
2023-04-21T17:36:21.571Z,1.25
2023-04-21T17:38:49.512Z,1.10
2023-04-21T17:41:16.881Z,1.35
2023-04-21T17:43:44.226Z,1.88
2023-04-21T17:46:12.456Z,1.38
2023-04-21T17:48:39.719Z,1.50
2023-04-21T17:51:07.009Z,1.42
2023-04-21T17:53:34.514Z,1.85
2023-04-21T17:56:01.974Z,1.73
2023-04-21T17:58:29.428Z,2.00
2023-04-21T18:00:56.925Z,2.15
2023-04-21T18:03:24.412Z,2.58
2023-04-21T18:05:52.390Z,3.53
2023-04-21T18:08:20.474Z,4.03
2023-04-21T18:10:48.404Z,4.30
2023-04-21T18:13:16.276Z,3.88
2023-04-21T18:15:43.621Z,3.75
2023-04-21T18:18:10.945Z,4.30
2023-04-21T18:20:38.197Z,3.97
2023-04-21T18:23:06.083Z,4.05
2023-04-21T18:25:42.085Z,4.13
2023-04-21T18:28:11.383Z,4.28
2023-04-21T18:30:39.247Z,4.45
2023-04-21T18:33:06.642Z,3.97
2023-04-21T18:35:34.339Z,3.92
2023-04-21T18:38:01.694Z,4.15
2023-04-21T18:40:28.997Z,3.38
2023-04-21T18:42:56.364Z,3.92
2023-04-21T18:45:23.638Z,4.05
2023-04-21T18:47:50.962Z,3.92
2023-04-21T18:50:18.985Z,3.45
2023-04-21T18:52:46.161Z,3.65
2023-04-21T18:55:14.333Z,3.63
2023-04-21T18:57:41.567Z,2.78
2023-04-21T19:00:09.960Z,3.15
2023-04-21T19:02:37.898Z,4.22
2023-04-21T19:05:05.571Z,2.78
2023-04-21T19:07:35.950Z,3.90
2023-04-21T19:10:03.261Z,4.18
2023-04-21T19:12:30.581Z,4.00
2023-04-21T19:14:57.966Z,4.03
2023-04-21T19:17:25.224Z,3.35
2023-04-21T19:19:52.417Z,3.90
2023-04-21T19:22:19.943Z,3.67
2023-04-21T19:24:47.404Z,4.10
2023-04-21T19:27:14.856Z,3.58
2023-04-21T19:29:42.473Z,3.75
2023-04-21T19:32:10.008Z,3.60
2023-04-21T19:34:37.850Z,4.80
2023-04-21T19:37:05.396Z,4.18
2023-04-21T19:39:33.062Z,4.50
2023-04-21T19:42:00.937Z,3.88
2023-04-21T19:44:28.183Z,4.35
2023-04-21T19:46:55.490Z,3.90
2023-04-21T19:49:22.789Z,3.90
2023-04-21T19:51:50.120Z,4.38
2023-04-21T19:54:17.483Z,4.18
2023-04-21T19:56:44.898Z,3.88
2023-04-21T19:59:12.293Z,3.90
2023-04-21T20:01:39.744Z,4.18
2023-04-21T20:04:07.380Z,3.33
2023-04-21T20:06:36.683Z,4.10
2023-04-21T20:09:07.130Z,4.57
2023-04-21T20:11:34.591Z,4.38
2023-04-21T20:14:01.904Z,4.45
2023-04-21T20:16:29.256Z,3.97
2023-04-21T20:18:56.580Z,4.72
2023-04-21T20:21:24.006Z,5.40
2023-04-21T20:23:51.224Z,4.78
2023-04-21T20:26:18.630Z,4.57
2023-04-21T20:28:45.914Z,4.85
2023-04-21T20:31:13.465Z,6.07
2023-04-21T20:33:40.733Z,6.28
2023-04-21T20:36:08.370Z,5.43
2023-04-21T20:38:35.696Z,6.25
2023-04-21T20:41:03.515Z,5.65
2023-04-21T20:43:34.166Z,6.05
2023-04-21T20:46:01.808Z,6.63
2023-04-21T20:48:29.118Z,5.80
2023-04-21T20:50:56.647Z,6.18
2023-04-21T20:53:24.159Z,7.15
2023-04-21T20:55:51.492Z,6.60
2023-04-21T20:58:18.931Z,7.38
2023-04-21T21:00:46.430Z,6.88
2023-04-21T21:03:14.154Z,6.30
2023-04-21T21:05:41.670Z,6.07
2023-04-21T21:08:09.100Z,7.82
2023-04-21T21:10:36.415Z,6.95
2023-04-21T21:13:03.835Z,8.20
2023-04-21T21:15:31.292Z,7.50
2023-04-21T21:17:58.860Z,7.07
2023-04-21T21:20:26.217Z,7.20
2023-04-21T21:22:53.702Z,6.85
2023-04-21T21:25:21.391Z,7.38
2023-04-21T21:27:48.716Z,7.65
2023-04-21T21:30:16.096Z,6.85
2023-04-21T21:32:43.409Z,7.57
2023-04-21T21:35:11.738Z,7.03
2023-04-21T21:37:39.242Z,7.85
2023-04-21T21:40:07.229Z,7.50
2023-04-21T21:42:34.708Z,7.57
2023-04-21T21:45:02.038Z,6.97
2023-04-21T21:47:29.443Z,7.45
2023-04-21T21:49:58.745Z,7.43
2023-04-21T21:52:28.489Z,7.68
2023-04-21T21:54:56.794Z,8.50
2023-04-21T21:57:24.112Z,8.52
2023-04-21T21:59:51.571Z,8.05
2023-04-21T22:02:18.880Z,8.40
2023-04-21T22:04:46.349Z,7.30
2023-04-21T22:07:13.963Z,9.18
2023-04-21T22:09:41.406Z,8.63
2023-04-21T22:12:09.220Z,8.50
2023-04-21T22:14:36.677Z,7.68
2023-04-21T22:17:04.336Z,8.35
2023-04-21T22:19:31.542Z,8.18
2023-04-21T22:21:58.762Z,9.70
2023-04-21T22:24:26.255Z,9.55
2023-04-21T22:26:53.559Z,8.88
2023-04-21T22:29:21.146Z,9.85
2023-04-21T22:31:48.574Z,8.60
2023-04-21T22:34:16.712Z,8.32
2023-04-21T22:36:44.146Z,7.65
2023-04-21T22:39:11.833Z,8.68
2023-04-21T22:41:39.275Z,9.32
2023-04-21T22:44:06.627Z,9.80
2023-04-21T22:46:34.269Z,8.77
2023-04-21T22:49:05.107Z,9.00
2023-04-21T22:51:32.980Z,9.35
2023-04-21T22:54:00.574Z,9.48
2023-04-21T22:56:28.614Z,10.23
2023-04-21T22:58:56.056Z,9.82
2023-04-21T23:01:23.407Z,8.60
2023-04-21T23:03:50.967Z,7.72
2023-04-21T23:06:18.442Z,8.57
2023-04-21T23:08:45.864Z,10.23
2023-04-21T23:11:13.511Z,10.15
2023-04-21T23:13:40.807Z,9.38
2023-04-21T23:16:08.059Z,8.63
2023-04-21T23:18:35.931Z,9.85
2023-04-21T23:21:03.335Z,9.52
2023-04-21T23:23:30.721Z,10.77
2023-04-21T23:25:57.995Z,9.43
2023-04-21T23:28:25.603Z,9.98
2023-04-21T23:30:52.938Z,8.88
2023-04-21T23:33:20.441Z,10.07
2023-04-21T23:35:48.050Z,9.80
2023-04-21T23:38:15.354Z,9.85
2023-04-21T23:40:42.686Z,9.70
2023-04-21T23:43:11.988Z,10.80
2023-04-21T23:45:39.348Z,9.48
2023-04-21T23:48:06.747Z,9.70
2023-04-21T23:50:34.126Z,10.57
2023-04-21T23:53:01.567Z,9.93
2023-04-21T23:55:28.931Z,9.57
2023-04-21T23:57:56.237Z,10.77
